sensor_id;sensor_type;location;lat;lon;timestamp;temperature;humidity
38428;DHT22;24211;49.980;19.776;2022-07-04T00:01:04;24.20;77.40
38428;DHT22;24211;49.980;19.776;2022-07-04T00:03:31;24.10;77.40
38428;DHT22;24211;49.980;19.776;2022-07-04T00:05:59;24.10;77.70
38428;DHT22;24211;49.980;19.776;2022-07-04T00:08:26;24.00;77.80
38428;DHT22;24211;49.980;19.776;2022-07-04T00:10:53;24.00;77.90
38428;DHT22;24211;49.980;19.776;2022-07-04T00:13:21;23.90;77.80
38428;DHT22;24211;49.980;19.776;2022-07-04T00:15:48;23.80;77.90
38428;DHT22;24211;49.980;19.776;2022-07-04T00:18:15;23.80;78.00
38428;DHT22;24211;49.980;19.776;2022-07-04T00:20:43;23.70;78.10
38428;DHT22;24211;49.980;19.776;2022-07-04T00:23:10;23.70;78.30
38428;DHT22;24211;49.980;19.776;2022-07-04T00:25:38;23.60;78.30
38428;DHT22;24211;49.980;19.776;2022-07-04T00:28:05;23.50;78.20
38428;DHT22;24211;49.980;19.776;2022-07-04T00:30:33;23.50;78.30
38428;DHT22;24211;49.980;19.776;2022-07-04T00:33:00;23.40;78.40
38428;DHT22;24211;49.980;19.776;2022-07-04T00:35:28;23.40;78.50
38428;DHT22;24211;49.980;19.776;2022-07-04T00:37:56;23.30;78.60
38428;DHT22;24211;49.980;19.776;2022-07-04T00:40:22;23.30;78.80
38428;DHT22;24211;49.980;19.776;2022-07-04T00:42:50;23.20;78.90
38428;DHT22;24211;49.980;19.776;2022-07-04T00:45:17;23.20;79.00
38428;DHT22;24211;49.980;19.776;2022-07-04T00:47:44;23.20;79.00
38428;DHT22;24211;49.980;19.776;2022-07-04T00:50:11;23.10;79.00
38428;DHT22;24211;49.980;19.776;2022-07-04T00:52:39;23.00;79.20
38428;DHT22;24211;49.980;19.776;2022-07-04T00:55:06;23.00;79.20
38428;DHT22;24211;49.980;19.776;2022-07-04T00:57:35;22.90;79.40
38428;DHT22;24211;49.980;19.776;2022-07-04T01:00:02;22.80;79.40
38428;DHT22;24211;49.980;19.776;2022-07-04T01:02:30;22.80;79.30
38428;DHT22;24211;49.980;19.776;2022-07-04T01:04:58;22.80;79.50
38428;DHT22;24211;49.980;19.776;2022-07-04T01:07:25;22.70;79.50
38428;DHT22;24211;49.980;19.776;2022-07-04T01:09:53;22.60;80.20
38428;DHT22;24211;49.980;19.776;2022-07-04T01:12:27;22.60;79.50
38428;DHT22;24211;49.980;19.776;2022-07-04T01:14:56;22.60;79.50
38428;DHT22;24211;49.980;19.776;2022-07-04T01:17:24;22.50;79.50
38428;DHT22;24211;49.980;19.776;2022-07-04T01:19:51;22.50;79.70
38428;DHT22;24211;49.980;19.776;2022-07-04T01:22:18;22.40;79.70
38428;DHT22;24211;49.980;19.776;2022-07-04T01:24:46;22.40;79.90
38428;DHT22;24211;49.980;19.776;2022-07-04T01:27:15;22.30;80.10
38428;DHT22;24211;49.980;19.776;2022-07-04T01:29:42;22.30;80.10
38428;DHT22;24211;49.980;19.776;2022-07-04T01:32:10;22.20;80.20
38428;DHT22;24211;49.980;19.776;2022-07-04T01:34:37;22.20;80.40
38428;DHT22;24211;49.980;19.776;2022-07-04T01:37:09;22.10;80.40
38428;DHT22;24211;49.980;19.776;2022-07-04T01:39:38;22.10;80.60
38428;DHT22;24211;49.980;19.776;2022-07-04T01:42:06;22.00;80.60
38428;DHT22;24211;49.980;19.776;2022-07-04T01:44:33;22.00;80.70
38428;DHT22;24211;49.980;19.776;2022-07-04T01:47:01;21.90;80.80
38428;DHT22;24211;49.980;19.776;2022-07-04T01:49:29;21.90;80.90
38428;DHT22;24211;49.980;19.776;2022-07-04T01:51:56;21.80;80.90
38428;DHT22;24211;49.980;19.776;2022-07-04T01:54:23;21.80;81.00
38428;DHT22;24211;49.980;19.776;2022-07-04T01:56:53;21.80;81.10
38428;DHT22;24211;49.980;19.776;2022-07-04T01:59:20;21.70;81.10
38428;DHT22;24211;49.980;19.776;2022-07-04T02:02:07;21.70;81.10
38428;DHT22;24211;49.980;19.776;2022-07-04T02:04:37;21.60;81.10
38428;DHT22;24211;49.980;19.776;2022-07-04T02:07:04;21.60;81.20
38428;DHT22;24211;49.980;19.776;2022-07-04T02:09:32;21.50;81.30
38428;DHT22;24211;49.980;19.776;2022-07-04T02:12:00;21.50;81.40
38428;DHT22;24211;49.980;19.776;2022-07-04T02:14:47;21.40;81.40
38428;DHT22;24211;49.980;19.776;2022-07-04T02:17:14;21.40;81.60
38428;DHT22;24211;49.980;19.776;2022-07-04T02:19:41;21.30;81.50
38428;DHT22;24211;49.980;19.776;2022-07-04T02:22:09;21.30;81.60
38428;DHT22;24211;49.980;19.776;2022-07-04T02:24:37;21.20;81.40
38428;DHT22;24211;49.980;19.776;2022-07-04T02:27:04;21.20;81.60
38428;DHT22;24211;49.980;19.776;2022-07-04T02:29:32;21.20;81.70
38428;DHT22;24211;49.980;19.776;2022-07-04T02:31:59;21.10;81.80
38428;DHT22;24211;49.980;19.776;2022-07-04T02:34:26;21.10;82.00
38428;DHT22;24211;49.980;19.776;2022-07-04T02:36:54;21.00;82.00
38428;DHT22;24211;49.980;19.776;2022-07-04T02:39:21;21.00;82.00
38428;DHT22;24211;49.980;19.776;2022-07-04T02:41:49;21.00;82.10
38428;DHT22;24211;49.980;19.776;2022-07-04T02:44:22;20.90;82.10
38428;DHT22;24211;49.980;19.776;2022-07-04T02:46:50;20.90;82.20
38428;DHT22;24211;49.980;19.776;2022-07-04T02:49:17;20.80;82.20
38428;DHT22;24211;49.980;19.776;2022-07-04T02:51:45;20.80;82.30
38428;DHT22;24211;49.980;19.776;2022-07-04T02:54:12;20.70;82.30
38428;DHT22;24211;49.980;19.776;2022-07-04T02:56:39;20.70;82.30
38428;DHT22;24211;49.980;19.776;2022-07-04T02:59:07;20.70;82.40
38428;DHT22;24211;49.980;19.776;2022-07-04T03:01:34;20.60;82.40
38428;DHT22;24211;49.980;19.776;2022-07-04T03:04:02;20.60;82.50
38428;DHT22;24211;49.980;19.776;2022-07-04T03:06:31;20.60;82.40
38428;DHT22;24211;49.980;19.776;2022-07-04T03:08:58;20.50;82.50
38428;DHT22;24211;49.980;19.776;2022-07-04T03:11:26;20.50;82.60
38428;DHT22;24211;49.980;19.776;2022-07-04T03:13:54;20.50;82.80
38428;DHT22;24211;49.980;19.776;2022-07-04T03:16:21;20.50;83.00
38428;DHT22;24211;49.980;19.776;2022-07-04T03:18:48;20.50;83.00
38428;DHT22;24211;49.980;19.776;2022-07-04T03:21:16;20.40;82.90
38428;DHT22;24211;49.980;19.776;2022-07-04T03:23:43;20.40;83.00
38428;DHT22;24211;49.980;19.776;2022-07-04T03:26:28;20.40;83.10
38428;DHT22;24211;49.980;19.776;2022-07-04T03:28:58;20.40;83.40
38428;DHT22;24211;49.980;19.776;2022-07-04T03:31:29;20.40;83.50
38428;DHT22;24211;49.980;19.776;2022-07-04T03:33:56;20.40;83.50
38428;DHT22;24211;49.980;19.776;2022-07-04T03:36:23;20.50;83.50
38428;DHT22;24211;49.980;19.776;2022-07-04T03:38:51;20.50;83.70
38428;DHT22;24211;49.980;19.776;2022-07-04T03:41:18;20.50;84.20
38428;DHT22;24211;49.980;19.776;2022-07-04T03:43:45;20.60;84.60
38428;DHT22;24211;49.980;19.776;2022-07-04T03:46:13;20.60;84.90
38428;DHT22;24211;49.980;19.776;2022-07-04T03:48:41;20.60;85.50
38428;DHT22;24211;49.980;19.776;2022-07-04T03:51:11;20.70;85.80
38428;DHT22;24211;49.980;19.776;2022-07-04T03:53:40;20.70;84.50
38428;DHT22;24211;49.980;19.776;2022-07-04T03:56:08;20.80;85.30
38428;DHT22;24211;49.980;19.776;2022-07-04T03:58:36;20.80;86.10
38428;DHT22;24211;49.980;19.776;2022-07-04T04:01:03;20.90;87.50
38428;DHT22;24211;49.980;19.776;2022-07-04T04:03:30;21.00;87.00
38428;DHT22;24211;49.980;19.776;2022-07-04T04:06:16;21.10;85.80
38428;DHT22;24211;49.980;19.776;2022-07-04T04:08:44;21.20;85.40
38428;DHT22;24211;49.980;19.776;2022-07-04T04:11:11;21.30;85.10
38428;DHT22;24211;49.980;19.776;2022-07-04T04:13:39;21.40;85.20
38428;DHT22;24211;49.980;19.776;2022-07-04T04:16:06;21.50;85.00
38428;DHT22;24211;49.980;19.776;2022-07-04T04:18:33;21.60;84.10
38428;DHT22;24211;49.980;19.776;2022-07-04T04:21:01;21.70;86.30
38428;DHT22;24211;49.980;19.776;2022-07-04T04:23:28;21.80;87.70
38428;DHT22;24211;49.980;19.776;2022-07-04T04:25:55;21.90;84.70
38428;DHT22;24211;49.980;19.776;2022-07-04T04:28:23;22.00;84.20
38428;DHT22;24211;49.980;19.776;2022-07-04T04:30:50;22.10;84.10
38428;DHT22;24211;49.980;19.776;2022-07-04T04:33:17;22.20;84.20
38428;DHT22;24211;49.980;19.776;2022-07-04T04:35:45;22.40;84.20
38428;DHT22;24211;49.980;19.776;2022-07-04T04:38:12;22.50;84.10
38428;DHT22;24211;49.980;19.776;2022-07-04T04:40:39;22.60;84.90
38428;DHT22;24211;49.980;19.776;2022-07-04T04:43:07;22.70;84.20
38428;DHT22;24211;49.980;19.776;2022-07-04T04:45:34;22.80;84.50
38428;DHT22;24211;49.980;19.776;2022-07-04T04:48:01;23.00;84.70
38428;DHT22;24211;49.980;19.776;2022-07-04T04:50:29;23.10;84.70
38428;DHT22;24211;49.980;19.776;2022-07-04T04:52:56;23.30;84.60
38428;DHT22;24211;49.980;19.776;2022-07-04T04:55:24;23.40;84.30
38428;DHT22;24211;49.980;19.776;2022-07-04T04:57:52;23.60;84.30
38428;DHT22;24211;49.980;19.776;2022-07-04T05:00:19;23.80;84.40
38428;DHT22;24211;49.980;19.776;2022-07-04T05:02:46;24.00;85.00
38428;DHT22;24211;49.980;19.776;2022-07-04T05:05:14;24.30;84.30
38428;DHT22;24211;49.980;19.776;2022-07-04T05:07:41;24.50;83.80
38428;DHT22;24211;49.980;19.776;2022-07-04T05:10:08;24.70;83.20
38428;DHT22;24211;49.980;19.776;2022-07-04T05:12:36;24.80;83.40
38428;DHT22;24211;49.980;19.776;2022-07-04T05:15:06;25.00;83.40
38428;DHT22;24211;49.980;19.776;2022-07-04T05:17:34;25.20;82.90
38428;DHT22;24211;49.980;19.776;2022-07-04T05:20:04;25.40;82.60
38428;DHT22;24211;49.980;19.776;2022-07-04T05:22:31;25.50;82.70
38428;DHT22;24211;49.980;19.776;2022-07-04T05:24:58;25.70;82.30
38428;DHT22;24211;49.980;19.776;2022-07-04T05:27:27;25.80;82.70
38428;DHT22;24211;49.980;19.776;2022-07-04T05:29:54;26.00;82.80
38428;DHT22;24211;49.980;19.776;2022-07-04T05:32:21;26.10;83.10
38428;DHT22;24211;49.980;19.776;2022-07-04T05:34:49;26.20;82.90
38428;DHT22;24211;49.980;19.776;2022-07-04T05:37:16;26.30;82.80
38428;DHT22;24211;49.980;19.776;2022-07-04T05:39:44;26.60;82.90
38428;DHT22;24211;49.980;19.776;2022-07-04T05:42:12;26.80;82.60
38428;DHT22;24211;49.980;19.776;2022-07-04T05:44:39;26.80;82.40
38428;DHT22;24211;49.980;19.776;2022-07-04T05:47:06;27.00;82.50
38428;DHT22;24211;49.980;19.776;2022-07-04T05:49:34;27.20;82.30
38428;DHT22;24211;49.980;19.776;2022-07-04T05:52:01;27.20;82.30
38428;DHT22;24211;49.980;19.776;2022-07-04T05:54:29;27.20;82.30
38428;DHT22;24211;49.980;19.776;2022-07-04T05:56:56;27.40;82.30
38428;DHT22;24211;49.980;19.776;2022-07-04T05:59:23;27.60;82.30
38428;DHT22;24211;49.980;19.776;2022-07-04T06:01:50;27.80;81.70
38428;DHT22;24211;49.980;19.776;2022-07-04T06:04:18;28.00;81.50
38428;DHT22;24211;49.980;19.776;2022-07-04T06:06:45;28.20;81.70
38428;DHT22;24211;49.980;19.776;2022-07-04T06:09:14;28.30;81.70
38428;DHT22;24211;49.980;19.776;2022-07-04T06:11:43;28.30;81.70
38428;DHT22;24211;49.980;19.776;2022-07-04T06:14:11;28.40;81.50
38428;DHT22;24211;49.980;19.776;2022-07-04T06:16:38;28.50;81.40
38428;DHT22;24211;49.980;19.776;2022-07-04T06:19:06;28.40;81.80
38428;DHT22;24211;49.980;19.776;2022-07-04T06:21:33;28.30;82.00
38428;DHT22;24211;49.980;19.776;2022-07-04T06:24:00;28.20;82.10
38428;DHT22;24211;49.980;19.776;2022-07-04T06:26:30;28.50;81.80
38428;DHT22;24211;49.980;19.776;2022-07-04T06:28:57;28.80;81.20
38428;DHT22;24211;49.980;19.776;2022-07-04T06:31:24;29.30;80.60
38428;DHT22;24211;49.980;19.776;2022-07-04T06:33:52;29.40;80.40
38428;DHT22;24211;49.980;19.776;2022-07-04T06:36:38;29.60;80.00
38428;DHT22;24211;49.980;19.776;2022-07-04T06:39:05;29.80;79.80
38428;DHT22;24211;49.980;19.776;2022-07-04T06:41:33;30.20;79.70
38428;DHT22;24211;49.980;19.776;2022-07-04T06:44:00;30.30;79.40
38428;DHT22;24211;49.980;19.776;2022-07-04T06:46:28;30.20;79.20
38428;DHT22;24211;49.980;19.776;2022-07-04T06:48:55;30.20;79.90
38428;DHT22;24211;49.980;19.776;2022-07-04T06:51:23;30.50;79.00
38428;DHT22;24211;49.980;19.776;2022-07-04T06:53:52;30.80;78.60
38428;DHT22;24211;49.980;19.776;2022-07-04T06:56:20;30.70;78.60
38428;DHT22;24211;49.980;19.776;2022-07-04T06:58:47;30.60;78.60
38428;DHT22;24211;49.980;19.776;2022-07-04T07:01:15;30.70;78.80
38428;DHT22;24211;49.980;19.776;2022-07-04T07:03:43;30.70;78.50
38428;DHT22;24211;49.980;19.776;2022-07-04T07:06:10;30.80;78.40
38428;DHT22;24211;49.980;19.776;2022-07-04T07:08:38;30.80;78.50
38428;DHT22;24211;49.980;19.776;2022-07-04T07:11:05;31.10;78.00
38428;DHT22;24211;49.980;19.776;2022-07-04T07:13:44;31.20;77.70
38428;DHT22;24211;49.980;19.776;2022-07-04T07:16:13;31.30;77.50
38428;DHT22;24211;49.980;19.776;2022-07-04T07:18:42;31.50;78.10
38428;DHT22;24211;49.980;19.776;2022-07-04T07:21:11;31.90;77.10
38428;DHT22;24211;49.980;19.776;2022-07-04T07:23:42;32.20;76.50
38428;DHT22;24211;49.980;19.776;2022-07-04T07:26:10;32.50;76.80
38428;DHT22;24211;49.980;19.776;2022-07-04T07:28:39;32.60;76.00
38428;DHT22;24211;49.980;19.776;2022-07-04T07:31:06;32.80;76.10
38428;DHT22;24211;49.980;19.776;2022-07-04T07:33:34;33.30;75.50
38428;DHT22;24211;49.980;19.776;2022-07-04T07:36:02;33.40;75.00
38428;DHT22;24211;49.980;19.776;2022-07-04T07:38:29;33.70;74.70
38428;DHT22;24211;49.980;19.776;2022-07-04T07:40:56;33.90;74.30
38428;DHT22;24211;49.980;19.776;2022-07-04T07:43:24;34.10;74.10
38428;DHT22;24211;49.980;19.776;2022-07-04T07:45:51;34.10;74.00
38428;DHT22;24211;49.980;19.776;2022-07-04T07:48:19;34.40;73.70
38428;DHT22;24211;49.980;19.776;2022-07-04T07:50:46;34.60;73.40
38428;DHT22;24211;49.980;19.776;2022-07-04T07:53:13;34.80;73.10
38428;DHT22;24211;49.980;19.776;2022-07-04T07:55:41;34.80;73.40
38428;DHT22;24211;49.980;19.776;2022-07-04T07:58:08;34.50;72.90
38428;DHT22;24211;49.980;19.776;2022-07-04T08:00:36;34.90;72.40
38428;DHT22;24211;49.980;19.776;2022-07-04T08:03:22;34.90;72.00
38428;DHT22;24211;49.980;19.776;2022-07-04T08:06:10;34.80;72.10
38428;DHT22;24211;49.980;19.776;2022-07-04T08:08:39;35.00;72.10
38428;DHT22;24211;49.980;19.776;2022-07-04T08:11:08;35.20;71.60
38428;DHT22;24211;49.980;19.776;2022-07-04T08:13:37;35.40;71.40
38428;DHT22;24211;49.980;19.776;2022-07-04T08:16:06;35.60;71.10
38428;DHT22;24211;49.980;19.776;2022-07-04T08:18:34;35.70;71.00
38428;DHT22;24211;49.980;19.776;2022-07-04T08:21:02;35.60;71.00
38428;DHT22;24211;49.980;19.776;2022-07-04T08:23:39;35.80;70.50
38428;DHT22;24211;49.980;19.776;2022-07-04T08:26:27;35.80;69.50
38428;DHT22;24211;49.980;19.776;2022-07-04T08:28:55;35.80;69.60
38428;DHT22;24211;49.980;19.776;2022-07-04T08:31:26;35.90;69.70
38428;DHT22;24211;49.980;19.776;2022-07-04T08:34:16;36.10;69.20
38428;DHT22;24211;49.980;19.776;2022-07-04T08:36:43;36.40;68.70
38428;DHT22;24211;49.980;19.776;2022-07-04T08:39:11;36.50;68.40
38428;DHT22;24211;49.980;19.776;2022-07-04T08:41:40;36.60;68.00
38428;DHT22;24211;49.980;19.776;2022-07-04T08:44:09;36.70;67.90
38428;DHT22;24211;49.980;19.776;2022-07-04T08:46:39;36.70;66.40
38428;DHT22;24211;49.980;19.776;2022-07-04T08:49:20;36.40;66.80
38428;DHT22;24211;49.980;19.776;2022-07-04T08:51:59;36.60;66.80
38428;DHT22;24211;49.980;19.776;2022-07-04T08:54:29;36.60;66.90
38428;DHT22;24211;49.980;19.776;2022-07-04T08:57:17;36.80;66.40
38428;DHT22;24211;49.980;19.776;2022-07-04T09:00:06;36.60;65.90
38428;DHT22;24211;49.980;19.776;2022-07-04T09:02:34;36.60;66.00
38428;DHT22;24211;49.980;19.776;2022-07-04T09:05:05;36.60;65.80
38428;DHT22;24211;49.980;19.776;2022-07-04T09:07:34;36.80;64.70
38428;DHT22;24211;49.980;19.776;2022-07-04T09:10:02;36.80;64.80
38428;DHT22;24211;49.980;19.776;2022-07-04T09:12:30;36.90;64.00
38428;DHT22;24211;49.980;19.776;2022-07-04T09:15:18;37.10;64.10
38428;DHT22;24211;49.980;19.776;2022-07-04T09:17:46;37.40;62.70
38428;DHT22;24211;49.980;19.776;2022-07-04T09:20:19;37.40;62.60
38428;DHT22;24211;49.980;19.776;2022-07-04T09:22:50;37.50;63.20
38428;DHT22;24211;49.980;19.776;2022-07-04T09:25:20;37.60;63.10
38428;DHT22;24211;49.980;19.776;2022-07-04T09:27:54;37.50;63.10
38428;DHT22;24211;49.980;19.776;2022-07-04T09:30:27;37.70;63.10
38428;DHT22;24211;49.980;19.776;2022-07-04T09:32:56;37.80;62.50
38428;DHT22;24211;49.980;19.776;2022-07-04T09:35:29;37.90;62.80
38428;DHT22;24211;49.980;19.776;2022-07-04T09:38:03;38.00;62.60
38428;DHT22;24211;49.980;19.776;2022-07-04T09:40:37;38.10;63.00
38428;DHT22;24211;49.980;19.776;2022-07-04T09:43:25;38.30;62.70
38428;DHT22;24211;49.980;19.776;2022-07-04T09:46:00;38.60;62.40
38428;DHT22;24211;49.980;19.776;2022-07-04T09:48:47;38.60;61.80
38428;DHT22;24211;49.980;19.776;2022-07-04T09:54:25;38.70;61.20
38428;DHT22;24211;49.980;19.776;2022-07-04T09:57:00;38.90;62.00
38428;DHT22;24211;49.980;19.776;2022-07-04T09:59:30;39.00;61.90
38428;DHT22;24211;49.980;19.776;2022-07-04T10:02:08;39.40;61.30
38428;DHT22;24211;49.980;19.776;2022-07-04T10:04:44;39.60;60.50
38428;DHT22;24211;49.980;19.776;2022-07-04T10:07:37;39.70;61.30
38428;DHT22;24211;49.980;19.776;2022-07-04T10:10:34;40.00;60.90
38428;DHT22;24211;49.980;19.776;2022-07-04T10:13:08;40.30;61.20
38428;DHT22;24211;49.980;19.776;2022-07-04T10:15:42;40.60;59.80
38428;DHT22;24211;49.980;19.776;2022-07-04T10:18:10;40.60;59.60
38428;DHT22;24211;49.980;19.776;2022-07-04T10:20:37;40.80;58.90
38428;DHT22;24211;49.980;19.776;2022-07-04T10:23:05;40.80;59.40
38428;DHT22;24211;49.980;19.776;2022-07-04T10:25:33;40.90;60.40
38428;DHT22;24211;49.980;19.776;2022-07-04T10:28:01;41.00;59.90
38428;DHT22;24211;49.980;19.776;2022-07-04T10:30:34;41.30;59.30
38428;DHT22;24211;49.980;19.776;2022-07-04T10:33:09;41.50;58.70
38428;DHT22;24211;49.980;19.776;2022-07-04T10:35:55;41.50;58.70
38428;DHT22;24211;49.980;19.776;2022-07-04T10:41:29;41.70;59.00
38428;DHT22;24211;49.980;19.776;2022-07-04T10:44:05;41.90;57.80
38428;DHT22;24211;49.980;19.776;2022-07-04T10:46:45;42.00;57.00
38428;DHT22;24211;49.980;19.776;2022-07-04T10:52:11;41.80;58.00
38428;DHT22;24211;49.980;19.776;2022-07-04T10:54:42;41.80;57.20
38428;DHT22;24211;49.980;19.776;2022-07-04T11:02:27;41.60;57.80
38428;DHT22;24211;49.980;19.776;2022-07-04T11:05:04;41.80;57.20
38428;DHT22;24211;49.980;19.776;2022-07-04T11:18:02;42.30;55.00
38428;DHT22;24211;49.980;19.776;2022-07-04T11:20:32;42.30;54.10
38428;DHT22;24211;49.980;19.776;2022-07-04T11:23:08;42.40;53.70
38428;DHT22;24211;49.980;19.776;2022-07-04T11:25:44;42.30;54.40
38428;DHT22;24211;49.980;19.776;2022-07-04T11:31:07;42.40;55.60
38428;DHT22;24211;49.980;19.776;2022-07-04T11:33:35;42.50;55.70
38428;DHT22;24211;49.980;19.776;2022-07-04T11:36:13;42.80;55.30
38428;DHT22;24211;49.980;19.776;2022-07-04T11:41:18;43.00;55.70
38428;DHT22;24211;49.980;19.776;2022-07-04T11:44:08;43.10;55.30
38428;DHT22;24211;49.980;19.776;2022-07-04T11:47:08;43.20;56.10
38428;DHT22;24211;49.980;19.776;2022-07-04T11:49:52;43.50;54.70
38428;DHT22;24211;49.980;19.776;2022-07-04T11:52:24;43.80;53.70
38428;DHT22;24211;49.980;19.776;2022-07-04T11:55:15;44.00;53.20
38428;DHT22;24211;49.980;19.776;2022-07-04T11:57:45;44.00;53.10
38428;DHT22;24211;49.980;19.776;2022-07-04T12:00:16;44.00;53.70
38428;DHT22;24211;49.980;19.776;2022-07-04T12:02:48;43.90;53.30
38428;DHT22;24211;49.980;19.776;2022-07-04T12:05:17;44.00;53.90
38428;DHT22;24211;49.980;19.776;2022-07-04T12:07:47;44.00;54.40
38428;DHT22;24211;49.980;19.776;2022-07-04T12:10:36;44.30;53.00
38428;DHT22;24211;49.980;19.776;2022-07-04T12:13:06;44.30;52.70
38428;DHT22;24211;49.980;19.776;2022-07-04T12:15:41;44.40;52.10
38428;DHT22;24211;49.980;19.776;2022-07-04T12:18:28;44.60;51.30
38428;DHT22;24211;49.980;19.776;2022-07-04T12:21:15;44.40;51.50
38428;DHT22;24211;49.980;19.776;2022-07-04T12:23:54;44.10;51.80
38428;DHT22;24211;49.980;19.776;2022-07-04T12:26:47;44.00;52.00
38428;DHT22;24211;49.980;19.776;2022-07-04T12:29:23;44.00;52.00
38428;DHT22;24211;49.980;19.776;2022-07-04T12:31:58;44.40;50.70
38428;DHT22;24211;49.980;19.776;2022-07-04T12:34:26;44.40;51.20
38428;DHT22;24211;49.980;19.776;2022-07-04T12:36:55;44.20;52.20
38428;DHT22;24211;49.980;19.776;2022-07-04T12:39:37;44.50;50.70
38428;DHT22;24211;49.980;19.776;2022-07-04T12:42:14;44.90;50.30
38428;DHT22;24211;49.980;19.776;2022-07-04T12:44:44;45.00;49.80
38428;DHT22;24211;49.980;19.776;2022-07-04T12:47:13;44.90;49.70
38428;DHT22;24211;49.980;19.776;2022-07-04T12:49:48;44.80;49.00
38428;DHT22;24211;49.980;19.776;2022-07-04T12:52:17;44.50;49.10
38428;DHT22;24211;49.980;19.776;2022-07-04T12:55:05;44.20;49.70
38428;DHT22;24211;49.980;19.776;2022-07-04T12:57:38;44.10;50.70
38428;DHT22;24211;49.980;19.776;2022-07-04T13:00:06;44.10;50.90
38428;DHT22;24211;49.980;19.776;2022-07-04T13:02:54;44.40;50.00
38428;DHT22;24211;49.980;19.776;2022-07-04T13:05:21;44.60;48.60
38428;DHT22;24211;49.980;19.776;2022-07-04T13:07:48;44.60;48.90
38428;DHT22;24211;49.980;19.776;2022-07-04T13:10:16;44.70;48.80
38428;DHT22;24211;49.980;19.776;2022-07-04T13:12:43;44.70;49.30
38428;DHT22;24211;49.980;19.776;2022-07-04T13:15:10;44.80;48.70
38428;DHT22;24211;49.980;19.776;2022-07-04T13:17:40;44.80;49.20
38428;DHT22;24211;49.980;19.776;2022-07-04T13:20:08;44.80;49.60
38428;DHT22;24211;49.980;19.776;2022-07-04T13:22:36;44.80;49.50
38428;DHT22;24211;49.980;19.776;2022-07-04T13:25:04;44.80;50.00
38428;DHT22;24211;49.980;19.776;2022-07-04T13:27:34;45.20;49.10
38428;DHT22;24211;49.980;19.776;2022-07-04T13:30:02;45.30;49.20
38428;DHT22;24211;49.980;19.776;2022-07-04T13:32:30;45.00;49.00
38428;DHT22;24211;49.980;19.776;2022-07-04T13:34:57;44.80;49.70
38428;DHT22;24211;49.980;19.776;2022-07-04T13:37:24;44.60;49.90
38428;DHT22;24211;49.980;19.776;2022-07-04T13:39:51;44.50;50.40
38428;DHT22;24211;49.980;19.776;2022-07-04T13:42:20;44.50;49.90
38428;DHT22;24211;49.980;19.776;2022-07-04T13:45:07;44.60;49.70
38428;DHT22;24211;49.980;19.776;2022-07-04T13:47:35;44.50;49.80
38428;DHT22;24211;49.980;19.776;2022-07-04T13:50:03;44.40;50.50
38428;DHT22;24211;49.980;19.776;2022-07-04T13:52:31;44.50;50.00
38428;DHT22;24211;49.980;19.776;2022-07-04T13:54:59;44.50;49.70
38428;DHT22;24211;49.980;19.776;2022-07-04T13:57:26;44.30;50.30
38428;DHT22;24211;49.980;19.776;2022-07-04T13:59:53;44.00;50.40
38428;DHT22;24211;49.980;19.776;2022-07-04T14:02:21;43.90;50.40
38428;DHT22;24211;49.980;19.776;2022-07-04T14:04:48;43.70;50.50
38428;DHT22;24211;49.980;19.776;2022-07-04T14:07:16;43.50;50.80
38428;DHT22;24211;49.980;19.776;2022-07-04T14:09:46;43.20;51.30
38428;DHT22;24211;49.980;19.776;2022-07-04T14:12:14;43.00;51.50
38428;DHT22;24211;49.980;19.776;2022-07-04T14:14:43;42.80;51.90
38428;DHT22;24211;49.980;19.776;2022-07-04T14:17:11;42.80;51.70
38428;DHT22;24211;49.980;19.776;2022-07-04T14:19:58;42.80;52.10
38428;DHT22;24211;49.980;19.776;2022-07-04T14:22:26;42.80;52.10
38428;DHT22;24211;49.980;19.776;2022-07-04T14:24:53;42.90;52.20
38428;DHT22;24211;49.980;19.776;2022-07-04T14:27:20;42.90;51.10
38428;DHT22;24211;49.980;19.776;2022-07-04T14:29:49;42.90;50.70
38428;DHT22;24211;49.980;19.776;2022-07-04T14:32:16;43.00;50.80
38428;DHT22;24211;49.980;19.776;2022-07-04T14:34:44;43.00;51.20
38428;DHT22;24211;49.980;19.776;2022-07-04T14:37:11;43.20;51.50
38428;DHT22;24211;49.980;19.776;2022-07-04T14:39:38;43.60;49.70
38428;DHT22;24211;49.980;19.776;2022-07-04T14:42:06;43.70;50.10
38428;DHT22;24211;49.980;19.776;2022-07-04T14:44:33;43.90;50.80
38428;DHT22;24211;49.980;19.776;2022-07-04T14:47:06;43.90;50.20
38428;DHT22;24211;49.980;19.776;2022-07-04T14:49:38;44.10;48.90
38428;DHT22;24211;49.980;19.776;2022-07-04T14:52:06;44.20;48.40
38428;DHT22;24211;49.980;19.776;2022-07-04T14:54:33;44.10;48.10
38428;DHT22;24211;49.980;19.776;2022-07-04T14:57:01;43.90;48.40
38428;DHT22;24211;49.980;19.776;2022-07-04T14:59:28;43.40;48.80
38428;DHT22;24211;49.980;19.776;2022-07-04T15:01:56;43.10;49.60
38428;DHT22;24211;49.980;19.776;2022-07-04T15:04:24;42.90;49.80
38428;DHT22;24211;49.980;19.776;2022-07-04T15:06:51;42.70;50.80
38428;DHT22;24211;49.980;19.776;2022-07-04T15:09:18;42.70;50.00
38428;DHT22;24211;49.980;19.776;2022-07-04T15:11:46;42.70;50.10
38428;DHT22;24211;49.980;19.776;2022-07-04T15:14:14;42.60;50.30
38428;DHT22;24211;49.980;19.776;2022-07-04T15:16:41;42.70;51.00
38428;DHT22;24211;49.980;19.776;2022-07-04T15:19:09;42.60;50.40
38428;DHT22;24211;49.980;19.776;2022-07-04T15:21:37;42.20;51.40
38428;DHT22;24211;49.980;19.776;2022-07-04T15:24:23;42.10;51.50
38428;DHT22;24211;49.980;19.776;2022-07-04T15:26:51;42.00;50.80
38428;DHT22;24211;49.980;19.776;2022-07-04T15:29:21;42.20;50.20
38428;DHT22;24211;49.980;19.776;2022-07-04T15:31:50;42.30;49.30
38428;DHT22;24211;49.980;19.776;2022-07-04T15:34:18;42.40;48.90
38428;DHT22;24211;49.980;19.776;2022-07-04T15:36:46;42.40;48.90
38428;DHT22;24211;49.980;19.776;2022-07-04T15:39:15;42.40;48.90
38428;DHT22;24211;49.980;19.776;2022-07-04T15:41:44;42.50;49.10
38428;DHT22;24211;49.980;19.776;2022-07-04T15:44:13;42.50;48.70
38428;DHT22;24211;49.980;19.776;2022-07-04T15:46:41;42.50;49.10
38428;DHT22;24211;49.980;19.776;2022-07-04T15:49:28;42.50;49.40
38428;DHT22;24211;49.980;19.776;2022-07-04T15:51:55;42.60;48.80
38428;DHT22;24211;49.980;19.776;2022-07-04T15:54:23;42.70;49.20
38428;DHT22;24211;49.980;19.776;2022-07-04T15:56:50;42.60;49.40
38428;DHT22;24211;49.980;19.776;2022-07-04T15:59:17;42.50;49.50
38428;DHT22;24211;49.980;19.776;2022-07-04T16:01:45;42.40;49.80
38428;DHT22;24211;49.980;19.776;2022-07-04T16:04:13;42.30;50.10